createdAt,value
2018-06-24T00:00:14.264Z,5.30
2018-06-24T00:02:43.596Z,4.47
2018-06-24T00:05:12.937Z,6.53
2018-06-24T00:07:42.266Z,6.83
2018-06-24T00:10:11.597Z,6.72
2018-06-24T00:12:40.921Z,7.73
2018-06-24T00:15:10.253Z,4.07
2018-06-24T00:17:39.311Z,5.37
2018-06-24T00:20:09.220Z,6.00
2018-06-24T00:22:38.524Z,5.90
2018-06-24T00:25:07.870Z,6.70
2018-06-24T00:27:36.928Z,5.22
2018-06-24T00:30:06.323Z,6.05
2018-06-24T00:32:35.608Z,6.30
2018-06-24T00:35:04.916Z,4.30
2018-06-24T00:37:34.213Z,9.77
2018-06-24T00:40:03.520Z,6.10
2018-06-24T00:42:32.808Z,6.40
2018-06-24T00:45:02.113Z,7.73
2018-06-24T00:47:31.417Z,11.40
2018-06-24T00:50:00.773Z,5.97
2018-06-24T00:52:30.109Z,6.37
2018-06-24T00:54:59.413Z,7.17
2018-06-24T00:57:28.709Z,6.67
2018-06-24T01:00:14.012Z,5.97
2018-06-24T01:02:43.313Z,7.37
2018-06-24T01:05:13.575Z,6.63
2018-06-24T01:07:43.991Z,11.03
2018-06-24T01:10:13.295Z,5.43
2018-06-24T01:12:42.797Z,6.60
2018-06-24T01:15:11.948Z,5.87
2018-06-24T01:17:41.239Z,6.10
2018-06-24T01:20:10.671Z,6.20
2018-06-24T01:22:39.959Z,5.67
2018-06-24T01:25:09.264Z,5.93
2018-06-24T01:27:38.551Z,7.03
2018-06-24T01:30:07.865Z,10.27
2018-06-24T01:32:37.160Z,6.90
2018-06-24T01:35:06.457Z,7.00
2018-06-24T01:37:35.753Z,5.83
2018-06-24T01:40:05.064Z,8.10
2018-06-24T01:42:34.359Z,5.90
2018-06-24T01:45:03.673Z,6.47
2018-06-24T01:47:33.042Z,5.17
2018-06-24T01:50:02.060Z,8.03
2018-06-24T01:52:31.360Z,5.87
2018-06-24T01:55:00.657Z,8.20
2018-06-24T01:57:29.958Z,5.30
2018-06-24T01:59:59.257Z,6.28
2018-06-24T02:02:28.570Z,6.00
2018-06-24T02:04:57.861Z,5.80
2018-06-24T02:07:27.163Z,4.97
2018-06-24T02:09:56.466Z,5.13
2018-06-24T02:12:25.772Z,5.40
2018-06-24T02:14:55.072Z,10.63
2018-06-24T02:17:24.412Z,8.97
2018-06-24T02:19:53.732Z,6.87
2018-06-24T02:22:23.059Z,7.03
2018-06-24T02:24:52.380Z,9.77
2018-06-24T02:27:21.708Z,10.33
2018-06-24T02:29:51.045Z,7.80
2018-06-24T02:32:20.381Z,7.30
2018-06-24T02:34:49.693Z,10.50
2018-06-24T02:37:19.013Z,8.30
2018-06-24T02:39:48.324Z,9.57
2018-06-24T02:42:17.659Z,8.23
2018-06-24T02:44:46.980Z,6.00
2018-06-24T02:47:16.064Z,7.67
2018-06-24T02:49:45.372Z,6.80
2018-06-24T02:52:14.693Z,9.53
2018-06-24T02:54:44.016Z,6.03
2018-06-24T02:57:13.345Z,11.50
2018-06-24T02:59:42.656Z,8.63
2018-06-24T03:02:11.991Z,8.90
2018-06-24T03:04:41.331Z,6.93
2018-06-24T03:07:10.657Z,8.80
2018-06-24T03:09:39.985Z,9.87
2018-06-24T03:12:09.320Z,7.80
2018-06-24T03:14:38.659Z,9.20
2018-06-24T03:17:07.968Z,8.03
2018-06-24T03:19:37.282Z,9.33
2018-06-24T03:22:06.344Z,9.07
2018-06-24T03:24:35.648Z,10.03
2018-06-24T03:27:04.952Z,11.60
2018-06-24T03:29:34.332Z,9.13
2018-06-24T03:32:03.624Z,9.30
2018-06-24T03:34:32.930Z,12.20
2018-06-24T03:37:02.233Z,11.33
2018-06-24T03:39:31.541Z,12.03
2018-06-24T03:42:00.837Z,11.93
2018-06-24T03:44:30.193Z,9.30
2018-06-24T03:46:59.252Z,10.27
2018-06-24T03:49:28.556Z,8.97
2018-06-24T03:51:57.852Z,9.17
2018-06-24T03:54:27.393Z,13.57
2018-06-24T03:56:56.689Z,9.60
2018-06-24T03:59:25.979Z,11.37
2018-06-24T04:01:55.064Z,14.83
2018-06-24T04:04:24.156Z,13.83
2018-06-24T04:06:53.236Z,14.15
2018-06-24T04:09:22.574Z,10.20
2018-06-24T04:11:51.905Z,13.57
2018-06-24T04:14:21.237Z,12.23
2018-06-24T04:16:50.565Z,9.93
2018-06-24T04:19:19.671Z,10.53
2018-06-24T04:21:48.987Z,7.93
2018-06-24T04:24:18.329Z,9.03
2018-06-24T04:26:47.659Z,9.50
2018-06-24T04:29:16.984Z,9.23
2018-06-24T04:31:46.325Z,9.50
2018-06-24T04:34:15.670Z,13.07
2018-06-24T04:36:45.000Z,9.10
2018-06-24T04:39:14.336Z,9.07
2018-06-24T04:41:43.656Z,8.43
2018-06-24T04:44:12.752Z,13.20
2018-06-24T04:46:41.835Z,11.23
2018-06-24T04:49:11.168Z,9.77
2018-06-24T04:51:40.505Z,10.40
2018-06-24T04:54:09.831Z,8.60
2018-06-24T04:56:39.166Z,12.83
2018-06-24T04:59:08.488Z,12.70
2018-06-24T05:01:37.821Z,12.80
2018-06-24T05:04:07.161Z,11.73
2018-06-24T05:06:36.544Z,16.10
2018-06-24T05:09:08.729Z,12.73
2018-06-24T05:11:38.080Z,14.63
2018-06-24T05:14:07.477Z,14.67
2018-06-24T05:16:37.021Z,15.23
2018-06-24T05:19:06.333Z,13.27
2018-06-24T05:21:35.637Z,13.07
2018-06-24T05:24:04.683Z,12.83
2018-06-24T05:26:33.989Z,14.87
2018-06-24T05:29:03.295Z,14.87
2018-06-24T05:31:32.604Z,18.47
2018-06-24T05:34:01.900Z,17.53
2018-06-24T05:36:31.209Z,12.60
2018-06-24T05:39:00.505Z,14.67
2018-06-24T05:41:29.820Z,15.87
2018-06-24T05:43:59.136Z,13.57
2018-06-24T05:46:28.444Z,15.23
2018-06-24T05:48:57.760Z,13.60
2018-06-24T05:51:27.080Z,14.40
2018-06-24T05:53:56.396Z,15.50
2018-06-24T05:56:25.741Z,13.90
2018-06-24T05:58:55.093Z,12.33
2018-06-24T06:01:24.407Z,11.70
2018-06-24T06:03:53.734Z,15.93
2018-06-24T06:06:23.055Z,11.33
2018-06-24T06:08:52.356Z,12.70
2018-06-24T06:11:21.660Z,14.20
2018-06-24T06:13:51.033Z,14.17
2018-06-24T06:16:20.324Z,13.13
2018-06-24T06:18:49.427Z,12.33
2018-06-24T06:21:18.745Z,13.40
2018-06-24T06:23:48.057Z,14.20
2018-06-24T06:26:17.376Z,12.75
2018-06-24T06:28:46.679Z,13.43
2018-06-24T06:31:16.242Z,12.67
2018-06-24T06:33:45.541Z,11.23
2018-06-24T06:36:14.849Z,14.07
2018-06-24T06:38:44.165Z,16.50
2018-06-24T06:41:13.468Z,14.40
2018-06-24T06:43:42.781Z,14.50
2018-06-24T06:46:13.772Z,14.93
2018-06-24T06:48:43.007Z,15.40
2018-06-24T06:51:12.386Z,14.80
2018-06-24T06:53:41.621Z,12.40
2018-06-24T06:56:10.926Z,11.83
2018-06-24T06:58:40.236Z,13.73
2018-06-24T07:01:09.546Z,11.23
2018-06-24T07:03:38.870Z,18.13
2018-06-24T07:06:09.016Z,11.33
2018-06-24T07:08:38.320Z,10.10
2018-06-24T07:11:07.784Z,10.43
2018-06-24T07:13:37.097Z,10.03
2018-06-24T07:16:06.510Z,11.73
2018-06-24T07:18:35.876Z,10.37
2018-06-24T07:21:05.212Z,10.77
2018-06-24T07:23:34.552Z,7.93
2018-06-24T07:26:03.925Z,8.10
2018-06-24T07:28:33.272Z,8.30
2018-06-24T07:31:02.625Z,10.73
2018-06-24T07:33:32.162Z,12.40
2018-06-24T07:36:01.335Z,7.60
2018-06-24T07:38:30.686Z,9.33
2018-06-24T07:41:00.036Z,6.87
2018-06-24T07:43:29.453Z,8.63
2018-06-24T07:45:58.787Z,9.77
2018-06-24T07:48:28.130Z,11.90
2018-06-24T07:50:57.468Z,11.53
2018-06-24T07:53:26.828Z,8.40
2018-06-24T07:55:56.181Z,5.53
2018-06-24T07:58:25.499Z,4.58
2018-06-24T08:00:54.849Z,6.30
2018-06-24T08:03:24.208Z,5.03
2018-06-24T08:05:53.499Z,7.73
2018-06-24T08:08:22.595Z,8.23
2018-06-24T08:10:51.748Z,6.90
2018-06-24T08:13:21.101Z,9.03
2018-06-24T08:15:50.221Z,7.17
2018-06-24T08:18:19.577Z,7.37
2018-06-24T08:20:48.937Z,5.90
2018-06-24T08:23:18.289Z,6.87
2018-06-24T08:25:47.699Z,6.97
2018-06-24T08:28:17.036Z,3.90
2018-06-24T08:30:46.391Z,9.07
2018-06-24T08:33:15.733Z,5.50
2018-06-24T08:35:45.079Z,7.03
2018-06-24T08:38:14.420Z,7.97
2018-06-24T08:40:43.769Z,8.40
2018-06-24T08:43:13.106Z,5.37
2018-06-24T08:45:42.197Z,6.87
2018-06-24T08:48:11.517Z,6.00
2018-06-24T08:50:40.840Z,9.93
2018-06-24T08:53:10.189Z,12.53
2018-06-24T08:55:39.523Z,6.33
2018-06-24T08:58:08.952Z,7.63
2018-06-24T09:00:38.339Z,5.63
2018-06-24T09:03:07.651Z,6.60
2018-06-24T09:05:36.988Z,6.63
2018-06-24T09:08:06.363Z,8.97
2018-06-24T09:10:35.407Z,6.77
2018-06-24T09:13:04.490Z,6.63
2018-06-24T09:15:33.830Z,4.20
2018-06-24T09:18:03.164Z,7.67
2018-06-24T09:20:32.505Z,4.90
2018-06-24T09:23:01.855Z,7.10
2018-06-24T09:25:31.197Z,7.80
2018-06-24T09:28:00.279Z,4.13
2018-06-24T09:30:29.632Z,8.63
2018-06-24T09:32:58.976Z,6.45
2018-06-24T09:35:28.295Z,5.60
2018-06-24T09:37:57.391Z,5.93
2018-06-24T09:40:26.467Z,9.47
2018-06-24T09:42:55.795Z,8.83
2018-06-24T09:45:24.876Z,5.40
2018-06-24T09:47:54.209Z,5.57
2018-06-24T09:50:23.580Z,4.22
2018-06-24T09:52:52.948Z,5.77
2018-06-24T09:55:22.245Z,7.70
2018-06-24T09:57:51.580Z,5.50
2018-06-24T10:00:21.745Z,6.73
2018-06-24T10:02:52.145Z,5.78
2018-06-24T10:05:22.252Z,6.10
2018-06-24T10:07:51.340Z,5.83
2018-06-24T10:10:20.420Z,4.08
2018-06-24T10:12:49.752Z,6.03
2018-06-24T10:15:19.098Z,25.97
2018-06-24T10:17:48.404Z,11.23
2018-06-24T10:20:17.699Z,6.83
2018-06-24T10:22:47.008Z,5.93
2018-06-24T10:25:16.307Z,4.83
2018-06-24T10:27:45.608Z,6.23
2018-06-24T10:30:14.921Z,3.63
2018-06-24T10:32:44.228Z,3.50
2018-06-24T10:35:13.566Z,4.43
2018-06-24T10:37:42.876Z,4.77
2018-06-24T10:40:12.184Z,3.90
2018-06-24T10:42:41.505Z,4.30
2018-06-24T10:45:10.816Z,4.47
2018-06-24T10:47:40.128Z,6.13
2018-06-24T10:50:09.569Z,7.17
2018-06-24T10:52:38.880Z,7.67
2018-06-24T10:55:08.195Z,5.77
2018-06-24T10:57:37.532Z,5.03
2018-06-24T11:00:06.875Z,7.73
2018-06-24T11:02:36.213Z,3.50
2018-06-24T11:05:05.584Z,3.37
2018-06-24T11:07:34.917Z,4.33
2018-06-24T11:10:04.273Z,4.33
2018-06-24T11:12:33.597Z,7.03
2018-06-24T11:15:02.926Z,3.13
2018-06-24T11:17:32.314Z,4.47
2018-06-24T11:20:01.655Z,4.83
2018-06-24T11:22:30.977Z,5.80
2018-06-24T11:25:00.343Z,2.23
2018-06-24T11:27:29.431Z,6.67
2018-06-24T11:29:58.780Z,4.30
2018-06-24T11:32:28.125Z,6.47
2018-06-24T11:34:57.475Z,6.93
2018-06-24T11:37:26.884Z,16.97
2018-06-24T11:39:56.240Z,3.90
2018-06-24T11:42:25.617Z,2.70
2018-06-24T11:44:54.967Z,4.70
2018-06-24T11:47:24.317Z,2.60
2018-06-24T11:49:53.661Z,3.80
2018-06-24T11:52:22.747Z,5.27
2018-06-24T11:54:52.101Z,3.87
2018-06-24T11:57:21.436Z,3.10
2018-06-24T11:59:51.892Z,4.23
2018-06-24T12:02:21.236Z,2.62
2018-06-24T12:04:50.575Z,4.20
2018-06-24T12:07:19.917Z,5.63
2018-06-24T12:09:49.310Z,3.90
2018-06-24T12:12:18.607Z,2.93
2018-06-24T12:14:47.956Z,2.00
2018-06-24T12:17:17.288Z,2.23
2018-06-24T12:19:46.369Z,2.07
2018-06-24T12:22:15.680Z,4.10
2018-06-24T12:24:44.763Z,1.80
2018-06-24T12:27:14.096Z,3.83
2018-06-24T12:29:43.409Z,2.73
2018-06-24T12:32:12.712Z,2.87
2018-06-24T12:34:42.044Z,2.85
2018-06-24T12:37:11.370Z,1.77
2018-06-24T12:39:40.680Z,4.43
2018-06-24T12:42:09.992Z,4.83
2018-06-24T12:44:39.344Z,23.93
2018-06-24T12:47:08.657Z,1.87
2018-06-24T12:49:37.972Z,2.60
2018-06-24T12:52:07.288Z,4.73
2018-06-24T12:54:36.369Z,2.97
2018-06-24T12:57:05.449Z,2.30
2018-06-24T12:59:35.053Z,2.43
2018-06-24T13:02:04.091Z,2.10
2018-06-24T13:04:33.405Z,2.97
2018-06-24T13:07:02.771Z,0.90
2018-06-24T13:09:32.017Z,1.20
2018-06-24T13:12:01.321Z,2.57
2018-06-24T13:14:30.632Z,3.63
2018-06-24T13:17:00.049Z,5.20
2018-06-24T13:19:29.344Z,6.10
2018-06-24T13:21:58.657Z,3.37
2018-06-24T13:24:27.965Z,3.93
2018-06-24T13:26:57.283Z,1.67
2018-06-24T13:29:26.572Z,2.37
2018-06-24T13:31:55.886Z,1.27
2018-06-24T13:34:25.202Z,1.90
2018-06-24T13:36:54.513Z,2.27
2018-06-24T13:39:23.804Z,2.33
2018-06-24T13:41:53.117Z,1.70
2018-06-24T13:44:22.429Z,2.00
2018-06-24T13:46:51.747Z,1.60
2018-06-24T13:49:21.060Z,2.43
2018-06-24T13:51:50.434Z,2.10
2018-06-24T13:54:19.747Z,1.80
2018-06-24T13:56:49.077Z,3.13
2018-06-24T13:59:18.400Z,2.27
2018-06-24T14:01:47.737Z,3.03
2018-06-24T14:04:17.074Z,2.30
2018-06-24T14:06:46.390Z,6.03
2018-06-24T14:09:15.701Z,3.60
2018-06-24T14:11:45.023Z,2.37
2018-06-24T14:14:14.323Z,2.63
2018-06-24T14:16:43.640Z,4.23
2018-06-24T14:19:12.955Z,2.53
2018-06-24T14:21:42.285Z,2.87
2018-06-24T14:24:11.604Z,2.73
2018-06-24T14:26:40.952Z,3.33
2018-06-24T14:29:10.252Z,2.70
2018-06-24T14:31:39.564Z,3.90
2018-06-24T14:34:08.912Z,4.43
2018-06-24T14:36:38.282Z,5.97
2018-06-24T14:39:10.142Z,3.30
2018-06-24T14:41:39.505Z,18.83
2018-06-24T14:44:09.200Z,4.10
2018-06-24T14:46:38.503Z,6.07
2018-06-24T14:49:07.844Z,4.33
2018-06-24T14:51:36.969Z,4.43
2018-06-24T14:54:06.056Z,4.23
2018-06-24T14:56:35.410Z,3.57
2018-06-24T14:59:04.829Z,5.43
2018-06-24T15:01:34.201Z,2.37
2018-06-24T15:04:03.536Z,3.40
2018-06-24T15:06:32.902Z,5.60
2018-06-24T15:09:02.258Z,3.60
2018-06-24T15:11:31.609Z,2.77
2018-06-24T15:14:00.985Z,5.60
2018-06-24T15:16:30.348Z,4.50
2018-06-24T15:18:59.436Z,4.67
2018-06-24T15:21:28.741Z,3.83
2018-06-24T15:23:58.193Z,2.90
2018-06-24T15:26:27.515Z,6.60
2018-06-24T15:28:56.866Z,6.03
2018-06-24T15:31:26.205Z,6.17
2018-06-24T15:33:55.566Z,3.43
2018-06-24T15:36:24.885Z,10.08
2018-06-24T15:38:54.196Z,4.40
2018-06-24T15:41:23.521Z,4.67
2018-06-24T15:43:52.853Z,5.37
2018-06-24T15:46:22.168Z,4.20
2018-06-24T15:48:51.494Z,4.53
2018-06-24T15:51:20.872Z,6.00
2018-06-24T15:53:50.144Z,4.63
2018-06-24T15:56:19.466Z,3.83
2018-06-24T15:58:48.777Z,6.10
2018-06-24T16:01:18.104Z,5.47
2018-06-24T16:03:47.400Z,5.07
2018-06-24T16:06:16.709Z,4.57
2018-06-24T16:08:46.012Z,6.00
2018-06-24T16:11:15.329Z,4.67
2018-06-24T16:13:44.624Z,4.60
2018-06-24T16:16:13.933Z,4.78
2018-06-24T16:18:43.272Z,7.20
2018-06-24T16:21:12.910Z,4.90
2018-06-24T16:23:41.940Z,7.97
2018-06-24T16:26:11.331Z,7.23
2018-06-24T16:28:40.665Z,4.60
2018-06-24T16:31:10.025Z,4.90
2018-06-24T16:33:39.380Z,6.00
2018-06-24T16:36:08.935Z,5.37
2018-06-24T16:38:38.255Z,4.70
2018-06-24T16:41:07.604Z,5.07
2018-06-24T16:43:36.925Z,5.93
2018-06-24T16:46:06.345Z,5.03
2018-06-24T16:48:35.686Z,6.10
2018-06-24T16:51:05.036Z,6.70
2018-06-24T16:53:34.454Z,7.53
2018-06-24T16:56:03.793Z,6.33
2018-06-24T16:58:33.136Z,5.70
2018-06-24T17:01:02.529Z,6.40
2018-06-24T17:03:31.857Z,7.17
2018-06-24T17:06:01.287Z,8.07
2018-06-24T17:08:30.618Z,6.73
2018-06-24T17:10:59.968Z,12.20
2018-06-24T17:13:29.310Z,7.17
2018-06-24T17:15:58.632Z,8.10
2018-06-24T17:18:28.839Z,8.40
2018-06-24T17:20:58.207Z,9.20
2018-06-24T17:23:27.317Z,7.43
2018-06-24T17:25:56.644Z,7.80
2018-06-24T17:28:26.001Z,9.13
2018-06-24T17:30:55.103Z,4.73
2018-06-24T17:33:24.540Z,7.53
2018-06-24T17:35:53.866Z,7.37
2018-06-24T17:38:23.214Z,8.20
2018-06-24T17:40:52.553Z,9.47
2018-06-24T17:43:21.893Z,7.57
2018-06-24T17:45:51.237Z,7.93
2018-06-24T17:48:20.579Z,9.40
2018-06-24T17:50:49.912Z,8.20
2018-06-24T17:53:19.314Z,8.63
2018-06-24T17:55:48.620Z,9.97
2018-06-24T17:58:17.973Z,11.63
2018-06-24T18:00:47.333Z,7.77
2018-06-24T18:03:16.666Z,8.70
2018-06-24T18:05:46.103Z,8.10
2018-06-24T18:08:22.129Z,9.30
2018-06-24T18:10:51.448Z,9.10
2018-06-24T18:13:20.781Z,7.40
2018-06-24T18:15:50.112Z,14.47
2018-06-24T18:18:19.461Z,11.20
2018-06-24T18:20:48.860Z,9.23
2018-06-24T18:23:18.217Z,10.57
2018-06-24T18:25:47.544Z,8.43
2018-06-24T18:28:16.885Z,7.83
2018-06-24T18:30:46.228Z,6.20
2018-06-24T18:33:15.582Z,11.90
2018-06-24T18:35:44.968Z,9.20
2018-06-24T18:38:14.312Z,8.07
2018-06-24T18:40:43.657Z,10.03
2018-06-24T18:43:13.014Z,8.03
2018-06-24T18:45:42.342Z,8.93
2018-06-24T18:48:14.616Z,8.43
2018-06-24T18:50:43.944Z,8.53
2018-06-24T18:53:13.357Z,10.87
2018-06-24T18:55:42.691Z,10.03
2018-06-24T18:58:12.075Z,8.23
2018-06-24T19:00:41.415Z,7.53
2018-06-24T19:03:10.910Z,9.77
2018-06-24T19:05:40.179Z,9.97
2018-06-24T19:08:09.520Z,10.97
2018-06-24T19:10:38.869Z,11.00
2018-06-24T19:13:08.208Z,8.27
2018-06-24T19:15:37.781Z,7.33
2018-06-24T19:18:07.910Z,9.80
2018-06-24T19:20:37.232Z,8.57
2018-06-24T19:23:06.864Z,10.60
2018-06-24T19:25:36.202Z,11.20
2018-06-24T19:28:05.552Z,12.60
2018-06-24T19:30:34.864Z,10.90
2018-06-24T19:33:04.167Z,8.83
2018-06-24T19:35:33.470Z,11.07
2018-06-24T19:38:02.779Z,10.97
2018-06-24T19:40:32.094Z,9.27
2018-06-24T19:43:01.155Z,9.57
2018-06-24T19:45:30.473Z,9.00
2018-06-24T19:47:59.777Z,9.97
2018-06-24T19:50:29.076Z,9.37
2018-06-24T19:52:58.421Z,11.68
2018-06-24T19:55:27.735Z,12.03
2018-06-24T19:57:57.073Z,11.20
2018-06-24T20:00:26.405Z,10.70
2018-06-24T20:03:01.996Z,10.40
2018-06-24T20:05:31.290Z,9.20
2018-06-24T20:08:00.606Z,11.03
2018-06-24T20:10:29.920Z,8.77
2018-06-24T20:12:59.261Z,10.57
2018-06-24T20:15:28.581Z,8.37
2018-06-24T20:17:57.935Z,11.10
2018-06-24T20:20:27.236Z,8.50
2018-06-24T20:22:56.330Z,9.17
2018-06-24T20:25:25.641Z,11.33
2018-06-24T20:27:54.708Z,12.13
2018-06-24T20:30:24.032Z,10.83
2018-06-24T20:32:53.101Z,8.87
2018-06-24T20:35:22.404Z,9.27
2018-06-24T20:37:51.709Z,8.37
2018-06-24T20:40:21.249Z,11.40
2018-06-24T20:42:50.551Z,6.80
2018-06-24T20:45:19.991Z,7.33
2018-06-24T20:47:49.652Z,7.40
2018-06-24T20:50:19.117Z,5.33
2018-06-24T20:52:48.293Z,7.27
2018-06-24T20:55:17.600Z,5.63
2018-06-24T20:57:46.902Z,6.00
2018-06-24T21:00:16.215Z,7.20
2018-06-24T21:02:45.524Z,8.10
2018-06-24T21:05:14.833Z,6.70
2018-06-24T21:07:44.148Z,6.63
2018-06-24T21:10:13.213Z,5.80
2018-06-24T21:12:42.534Z,6.27
2018-06-24T21:15:11.601Z,5.07
2018-06-24T21:17:40.944Z,4.07
2018-06-24T21:20:10.282Z,4.30
2018-06-24T21:22:39.624Z,5.70
2018-06-24T21:25:08.968Z,6.83
2018-06-24T21:27:38.313Z,4.47
2018-06-24T21:49:59.197Z,5.00
2018-06-24T21:52:28.548Z,9.90
2018-06-24T21:54:57.898Z,6.17
2018-06-24T21:57:27.241Z,5.27
2018-06-24T21:59:56.564Z,5.17
2018-06-24T22:02:25.659Z,4.53
2018-06-24T22:04:54.744Z,3.53
2018-06-24T22:07:24.089Z,5.53
2018-06-24T22:09:53.430Z,5.30
2018-06-24T22:12:22.772Z,5.67
2018-06-24T22:14:52.112Z,5.30
2018-06-24T22:17:21.464Z,4.47
2018-06-24T22:19:50.648Z,3.43
2018-06-24T22:22:20.010Z,4.27
2018-06-24T22:24:49.335Z,5.47
2018-06-24T22:27:18.663Z,3.33
2018-06-24T22:29:47.760Z,4.80
2018-06-24T22:32:16.856Z,6.37
2018-06-24T22:34:46.011Z,5.83
2018-06-24T22:37:15.348Z,3.90
2018-06-24T22:39:44.453Z,2.87
2018-06-24T22:42:13.793Z,4.33
2018-06-24T22:44:43.129Z,4.60
2018-06-24T22:47:12.528Z,3.07
2018-06-24T22:49:41.867Z,2.10
2018-06-24T22:52:11.196Z,2.20
2018-06-24T22:54:40.538Z,3.30
2018-06-24T22:57:09.870Z,2.00
2018-06-24T23:00:10.910Z,3.43
2018-06-24T23:02:41.023Z,3.63
2018-06-24T23:05:10.974Z,2.63
2018-06-24T23:07:41.565Z,1.87
2018-06-24T23:10:11.016Z,2.60
2018-06-24T23:12:40.348Z,2.30
2018-06-24T23:15:10.699Z,2.27
2018-06-24T23:17:40.300Z,1.73
2018-06-24T23:20:10.123Z,3.73
2018-06-24T23:22:39.455Z,2.17
2018-06-24T23:25:08.789Z,3.27
2018-06-24T23:27:38.141Z,2.73
2018-06-24T23:30:09.057Z,1.83
2018-06-24T23:32:38.404Z,1.90
2018-06-24T23:35:07.765Z,3.10
2018-06-24T23:37:37.092Z,2.03
2018-06-24T23:40:06.437Z,2.53
2018-06-24T23:42:35.768Z,2.57
2018-06-24T23:45:05.113Z,1.90
2018-06-24T23:47:34.453Z,2.10
2018-06-24T23:50:03.573Z,5.07
2018-06-24T23:52:32.914Z,2.07
2018-06-24T23:55:02.257Z,3.53
2018-06-24T23:57:31.348Z,3.07
